Hlavní strana
METAR-TAF:

METAR-TAF

Letiště :

Washington, Indiana, Spojené státy americké

zeměpisná šířka: 38-42-02N, zeměpisná délka: 087-07-47W, výška: 144 m

Aktuální stav počasí

Zpráva byla vytvořena před 25 minutami, v 09:55 UTC
Severní vítr 4 kt
Teplota 0°C
Vlhkost vzduchu 93%
Tlak 1026 hPa
Viditelnost: 16.1 km
Jasno

METAR: KDCY 250955Z AUTO 35004KT 10SM CLR 00/M01 A3030 RMK AO2 T00001010

Čas: 05:20 (10:20 UTC)


TAF: chybějící

Stav a předpovědi počasí z více než 4 000 letišť (zprávy METAR a TAF).

Červené a žluté tečky na mapě představují dostupné meteorologické stanice.

Když kurzor umístíte na tečku, zobrazí se název stanice.

Pak kliknutím zobrazíte stav a předpověď počasí.

Chcete-li změnit mapu, kliknutím na zelené tlačítko se znaménkem +mapu přiblížíte, kliknutím na zelené tlačítko se znaménkem – mapu oddálíte a kliknutím na zelené šipky přejdete na sousední mapy.


METAR-TAF: